Time;durP1;ratioP1;P1;durP2;ratioP2;P2;SDS_P1;SDS_P2;PMS_P1;PMS_P2;Temp;Humidity;BMP_temperature;BMP_pressure;BME280_temperature;BME280_humidity;BME280_pressure;Samples;Min_cycle;Max_cycle;Signal;HPM_P1;HPM_P2
2021/04/12 00:01:15;;;;;;;9.43;6.53;;;;;;;-139.48;100.00;61774.03;5038099;28;20441;-67
2021/04/12 00:04:03;;;;;;;10.98;7.85;;;;;;;-139.48;100.00;61774.03;5038260;28;20106;-67
2021/04/12 00:07:00;;;;;;;12.38;8.43;;;;;;;-139.48;100.00;61774.03;5038281;28;20067;-67
2021/04/12 00:09:50;;;;;;;14.23;8.70;;;;;;;-139.48;100.00;61774.03;5038170;28;20048;-67
2021/04/12 00:12:57;;;;;;;12.98;8.38;;;;;;;-139.48;100.00;61774.03;5037894;28;20044;-67
2021/04/12 00:15:46;;;;;;;11.85;7.80;;;;;;;-139.48;100.00;61774.03;5038131;28;20047;-66
2021/04/12 00:18:37;;;;;;;10.13;7.32;;;;;;;-139.48;100.00;61774.03;5024203;28;20084;-66
2021/04/12 00:21:26;;;;;;;7.45;5.90;;;;;;;-139.48;100.00;61774.03;5038126;28;20075;-67
2021/04/12 00:24:20;;;;;;;8.75;6.90;;;;;;;-139.48;100.00;61774.03;5038071;28;20055;-65
2021/04/12 00:27:06;;;;;;;;;;;;;;;-139.48;100.00;61774.03;5038498;28;20044;-66
2021/04/12 00:29:54;;;;;;;11.30;7.00;;;;;;;-139.48;100.00;61774.03;5052136;28;19919;-68
2021/04/12 00:32:42;;;;;;;9.48;7.20;;;;;;;-139.48;100.00;61774.03;5040759;28;20067;-67
2021/04/12 00:35:32;;;;;;;8.77;6.55;;;;;;;-139.48;100.00;61774.03;5041942;28;20048;-67
2021/04/12 00:38:25;;;;;;;9.10;6.72;;;;;;;-139.48;100.00;61774.03;5027545;28;20087;-67
2021/04/12 00:41:24;;;;;;;11.05;6.70;;;;;;;-139.48;100.00;61774.03;5066811;22;20060;-69
2021/04/12 00:44:36;;;;;;;9.38;6.55;;;;;;;-139.48;100.00;61774.03;5070066;28;20097;-69
2021/04/12 00:47:28;;;;;;;10.23;7.22;;;;;;;-139.48;100.00;61774.03;5056414;28;20449;-69
2021/04/12 00:50:38;;;;;;;9.80;6.90;;;;;;;-139.48;100.00;61774.03;5056748;28;20128;-69
2021/04/12 00:53:50;;;;;;;9.30;6.00;;;;;;;-139.48;100.00;61774.03;5057289;28;20102;-69
2021/04/12 00:56:43;;;;;;;11.82;5.38;;;;;;;-139.48;100.00;61774.03;5056043;28;20416;-69
2021/04/12 00:59:27;;;;;;;11.55;8.15;;;;;;;-139.48;100.00;61774.03;5055647;28;20047;-69
2021/04/12 01:02:31;;;;;;;11.20;6.35;;;;;;;-139.48;100.00;61774.03;5056409;28;20425;-69
2021/04/12 01:05:56;;;;;;;9.00;6.13;;;;;;;-139.48;100.00;61774.03;5041445;28;20159;-69
2021/04/12 01:09:02;;;;;;;9.10;6.65;;;;;;;-139.48;100.00;61774.03;5041650;28;20051;-69
2021/04/12 01:12:11;;;;;;;9.00;6.03;;;;;;;-139.48;100.00;61774.03;5055524;28;20620;-69
2021/04/12 01:15:13;;;;;;;10.23;6.30;;;;;;;-139.48;100.00;61774.03;5056744;28;20090;-69
2021/04/12 01:18:17;;;;;;;7.07;4.97;;;;;;;-139.48;100.00;61774.03;5056314;28;20052;-69
2021/04/12 01:21:07;;;;;;;9.07;5.30;;;;;;;-139.48;100.00;61774.03;5055455;28;20075;-69
2021/04/12 01:24:10;;;;;;;6.97;5.05;;;;;;;-139.48;100.00;61774.03;5056097;28;20048;-69
2021/04/12 01:27:13;;;;;;;8.43;6.05;;;;;;;-139.48;100.00;61774.03;5055497;28;20056;-69
2021/04/12 01:30:12;;;;;;;6.00;4.65;;;;;;;-139.48;100.00;61774.03;5056387;28;20048;-69
2021/04/12 01:33:33;;;;;;;10.15;6.18;;;;;;;-139.48;100.00;61774.03;5055155;28;20052;-69
2021/04/12 01:36:25;;;;;;;11.25;6.10;;;;;;;-139.48;100.00;61774.03;5056065;28;20060;-69
2021/04/12 01:39:23;;;;;;;13.82;7.20;;;;;;;-139.48;100.00;61774.03;5055014;28;20043;-69
2021/04/12 01:42:19;;;;;;;7.32;5.50;;;;;;;-139.48;100.00;61774.03;5054740;28;20612;-69
2021/04/12 01:45:05;;;;;;;10.05;6.50;;;;;;;-139.48;100.00;61774.03;5055621;28;20043;-69
2021/04/12 01:48:16;;;;;;;12.10;7.35;;;;;;;-139.48;100.00;61774.03;5055926;28;20482;-69
2021/04/12 01:51:21;;;;;;;8.18;6.30;;;;;;;-139.48;100.00;61774.03;5054779;28;20107;-69
2021/04/12 01:54:45;;;;;;;12.00;7.50;;;;;;;-139.48;100.00;61774.03;5055993;28;20102;-69
2021/04/12 01:57:42;;;;;;;12.90;7.70;;;;;;;-139.48;100.00;61774.03;5054771;28;20056;-69
2021/04/12 02:00:56;;;;;;;13.52;7.95;;;;;;;-139.48;100.00;61774.03;5055408;28;20235;-69
2021/04/12 02:04:05;;;;;;;14.65;8.23;;;;;;;-139.48;100.00;61774.03;5055490;28;20047;-69
2021/04/12 02:07:10;;;;;;;12.57;8.25;;;;;;;-139.48;100.00;61774.03;5054539;28;20052;-69
2021/04/12 02:10:02;;;;;;;;;;;;;;;-139.48;100.00;61774.03;5055006;28;20067;-69
2021/04/12 02:12:58;;;;;;;14.85;8.88;;;;;;;-139.48;100.00;61774.03;5055184;28;19920;-69
2021/04/12 02:15:50;;;;;;;14.43;9.20;;;;;;;-139.48;100.00;61774.03;5054550;28;20051;-69
2021/04/12 02:18:56;;;;;;;16.73;9.15;;;;;;;-139.48;100.00;61774.03;5054358;28;20102;-68
2021/04/12 02:21:59;;;;;;;15.98;8.98;;;;;;;-139.48;100.00;61774.03;5054934;28;20040;-69
2021/04/12 02:24:55;;;;;;;13.43;9.45;;;;;;;-139.48;100.00;61774.03;5055275;28;20048;-69
2021/04/12 02:27:42;;;;;;;13.07;9.15;;;;;;;-139.48;100.00;61774.03;5055288;28;20410;-69
2021/04/12 02:31:21;;;;;;;13.48;8.77;;;;;;;-139.48;100.00;61774.03;5055335;28;20039;-69
2021/04/12 02:34:39;;;;;;;12.93;8.60;;;;;;;-139.48;100.00;61774.03;5054965;28;20091;-69
2021/04/12 02:37:50;;;;;;;15.77;9.13;;;;;;;-139.48;100.00;61774.03;5040074;28;20044;-68
2021/04/12 02:41:05;;;;;;;12.15;8.60;;;;;;;-139.48;100.00;61774.03;5053398;28;20056;-69
2021/04/12 02:44:27;;;;;;;10.90;7.00;;;;;;;-139.48;100.00;61774.03;5054523;28;20051;-68
2021/04/12 02:47:16;;;;;;;15.45;8.77;;;;;;;-139.48;100.00;61774.03;5054721;28;20048;-68
2021/04/12 02:50:22;;;;;;;12.20;8.27;;;;;;;-139.48;100.00;61774.03;5053856;28;20422;-68
2021/04/12 02:53:18;;;;;;;12.57;7.80;;;;;;;-139.48;100.00;61774.03;5053692;28;20052;-69
2021/04/12 02:56:15;;;;;;;16.90;8.25;;;;;;;-139.48;100.00;61774.03;5052640;28;20445;-68
2021/04/12 02:59:27;;;;;;;15.10;9.32;;;;;;;-139.48;100.00;61774.03;5053463;28;20047;-69
2021/04/12 03:02:49;;;;;;;15.65;8.95;;;;;;;-139.48;100.00;61774.03;5053590;28;20043;-69
2021/04/12 03:05:55;;;;;;;17.83;9.05;;;;;;;-139.48;100.00;61774.03;5054479;28;20039;-68
2021/04/12 03:09:18;;;;;;;16.25;10.15;;;;;;;-139.48;100.00;61774.03;5053089;28;20155;-68
2021/04/12 03:12:33;;;;;;;16.25;10.02;;;;;;;-139.48;100.00;61774.03;5053226;28;20102;-68
2021/04/12 03:15:38;;;;;;;;;;;;;;;-139.48;100.00;61774.03;5054727;28;20047;-68
2021/04/12 03:18:46;;;;;;;15.30;9.80;;;;;;;-139.48;100.00;61774.03;5052880;28;19918;-67
2021/04/12 03:22:08;;;;;;;19.73;9.32;;;;;;;-139.48;100.00;61774.03;5052785;28;20634;-68
2021/04/12 03:25:10;;;;;;;18.08;10.02;;;;;;;-139.48;100.00;61774.03;5053387;28;20059;-66
2021/04/12 03:28:20;;;;;;;20.40;11.75;;;;;;;-139.48;100.00;61774.03;5053724;28;20421;-68
2021/04/12 03:31:15;;;;;;;22.35;11.88;;;;;;;-139.48;100.00;61774.03;5052790;28;20060;-68
2021/04/12 03:34:20;;;;;;;22.48;13.10;;;;;;;-139.48;100.00;61774.03;5053775;28;20044;-69
2021/04/12 03:37:22;;;;;;;;;;;;;;;-139.48;100.00;61774.03;5053226;28;20551;-68
2021/04/12 03:40:19;;;;;;;22.80;12.55;;;;;;;-139.48;100.00;61774.03;5053303;28;19918;-69
2021/04/12 03:43:25;;;;;;;24.55;12.35;;;;;;;-139.48;100.00;61774.03;5053757;28;20052;-68
2021/04/12 03:46:55;;;;;;;23.80;13.07;;;;;;;-139.48;100.00;61774.03;5053660;28;20048;-69
2021/04/12 03:50:06;;;;;;;22.02;12.02;;;;;;;-139.48;100.00;61774.03;5052576;28;20112;-69
2021/04/12 03:53:17;;;;;;;21.90;12.25;;;;;;;-139.48;100.00;61774.03;5053474;28;20456;-69
2021/04/12 03:56:31;;;;;;;22.50;12.52;;;;;;;-139.48;100.00;61774.03;5054147;28;20098;-68
2021/04/12 03:59:43;;;;;;;23.55;12.50;;;;;;;-139.48;100.00;61774.03;5052073;28;20040;-68
2021/04/12 04:02:30;;;;;;;24.50;13.23;;;;;;;-139.48;100.00;61774.03;5052398;28;20563;-69
2021/04/12 04:05:45;;;;;;;32.13;14.70;;;;;;;-139.48;100.00;61774.03;5053411;28;20079;-69
2021/04/12 04:08:38;;;;;;;29.85;14.30;;;;;;;-139.48;100.00;61774.03;5053055;28;20166;-68
2021/04/12 04:11:24;;;;;;;19.45;11.25;;;;;;;-139.48;100.00;61774.03;5052112;28;20052;-68
2021/04/12 04:14:31;;;;;;;23.33;12.15;;;;;;;-139.48;100.00;61774.03;5053377;28;20500;-68
2021/04/12 04:17:54;;;;;;;21.63;11.35;;;;;;;-139.48;100.00;61774.03;5052214;28;20048;-67
2021/04/12 04:20:51;;;;;;;26.63;13.73;;;;;;;-139.48;100.00;61774.03;5053022;28;20071;-68
2021/04/12 04:23:49;;;;;;;31.30;14.48;;;;;;;-139.48;100.00;61774.03;5051987;28;20417;-69
2021/04/12 04:27:10;;;;;;;25.38;14.15;;;;;;;-139.48;100.00;61774.03;5038296;28;20112;-68
2021/04/12 04:29:58;;;;;;;34.40;16.08;;;;;;;-139.48;100.00;61774.03;5052054;28;20469;-69
2021/04/12 04:32:58;;;;;;;26.92;13.88;;;;;;;-139.48;100.00;61774.03;5038451;28;20462;-68
2021/04/12 04:35:54;;;;;;;21.40;12.65;;;;;;;-139.48;100.00;61774.03;5052990;28;20126;-68
2021/04/12 04:39:15;;;;;;;18.77;10.73;;;;;;;-139.48;100.00;61774.03;5052894;28;20048;-69
2021/04/12 04:42:12;;;;;;;19.17;11.18;;;;;;;-139.48;100.00;61774.03;5052802;28;20520;-67
2021/04/12 04:45:13;;;;;;;18.70;11.32;;;;;;;-139.48;100.00;61774.03;5053054;28;20508;-68
2021/04/12 04:48:12;;;;;;;20.23;11.50;;;;;;;-139.48;100.00;61774.03;5052100;28;20040;-69
2021/04/12 04:51:23;;;;;;;17.73;10.95;;;;;;;-139.48;100.00;61774.03;5052698;28;20098;-68
2021/04/12 04:54:41;;;;;;;29.58;15.27;;;;;;;-139.48;100.00;61774.03;5052931;28;20040;-68
2021/04/12 04:57:42;;;;;;;19.77;12.20;;;;;;;-139.48;100.00;61774.03;5051804;28;20084;-68
2021/04/12 05:00:48;;;;;;;18.88;11.48;;;;;;;-139.48;100.00;61774.03;5037732;28;20040;-68
2021/04/12 05:03:44;;;;;;;16.95;10.05;;;;;;;-139.48;100.00;61774.03;5052750;28;20055;-67
2021/04/12 05:06:34;;;;;;;19.25;11.43;;;;;;;-139.48;100.00;61774.03;5052205;28;20056;-68
2021/04/12 05:09:45;;;;;;;21.33;12.30;;;;;;;-139.48;100.00;61774.03;5052914;28;20036;-68
2021/04/12 05:12:47;;;;;;;20.02;11.52;;;;;;;-139.48;100.00;61774.03;5051494;28;20071;-68
2021/04/12 05:15:59;;;;;;;20.98;10.82;;;;;;;-139.48;100.00;61774.03;5051823;28;20083;-67
2021/04/12 05:19:10;;;;;;;17.20;10.23;;;;;;;-139.48;100.00;61774.03;5052623;28;20122;-68
2021/04/12 05:22:27;;;;;;;19.88;11.60;;;;;;;-139.48;100.00;61774.03;5055525;28;20464;-68
2021/04/12 05:25:32;;;;;;;22.17;10.80;;;;;;;-139.48;100.00;61774.03;5055979;28;20044;-68
2021/04/12 05:29:00;;;;;;;18.75;10.50;;;;;;;-139.48;100.00;61774.03;5055258;28;20090;-68
2021/04/12 05:31:46;;;;;;;15.30;9.63;;;;;;;-139.48;100.00;61774.03;5055015;28;20083;-68
2021/04/12 05:34:38;;;;;;;17.00;10.18;;;;;;;-139.48;100.00;61774.03;5055158;28;20055;-68
2021/04/12 05:37:43;;;;;;;20.92;11.93;;;;;;;-139.48;100.00;61774.03;5055161;28;20090;-68
2021/04/12 05:40:35;;;;;;;18.20;10.80;;;;;;;-139.48;100.00;61774.03;5054930;28;20083;-69
2021/04/12 05:43:26;;;;;;;14.40;8.73;;;;;;;-139.48;100.00;61774.03;5056307;28;20521;-68
2021/04/12 05:46:32;;;;;;;18.80;10.43;;;;;;;-139.48;100.00;61774.03;5055178;28;20071;-68
2021/04/12 05:49:54;;;;;;;17.67;10.27;;;;;;;-139.48;100.00;61774.03;5055071;28;20551;-69
2021/04/12 05:53:12;;;;;;;17.88;10.07;;;;;;;-139.48;100.00;61774.03;5055781;28;20075;-69
2021/04/12 05:55:59;;;;;;;17.88;10.18;;;;;;;-139.48;100.00;61774.03;5040651;28;20089;-69
2021/04/12 05:58:52;;;;;;;17.52;9.50;;;;;;;-139.48;100.00;61774.03;5055894;28;20051;-68
2021/04/12 06:02:00;;;;;;;16.15;8.68;;;;;;;-139.48;100.00;61774.03;5055341;28;20052;-68
2021/04/12 06:04:58;;;;;;;18.48;9.93;;;;;;;-139.48;100.00;61774.03;5055108;28;20059;-68
2021/04/12 06:08:18;;;;;;;24.05;13.00;;;;;;;-139.48;100.00;61774.03;5054543;28;20091;-68
2021/04/12 06:11:35;;;;;;;17.85;9.23;;;;;;;-139.48;100.00;61774.03;5023074;28;20091;-68
2021/04/12 06:14:29;;;;;;;17.67;11.15;;;;;;;-139.48;100.00;61774.03;5055434;28;20418;-68
2021/04/12 06:17:19;;;;;;;20.95;12.45;;;;;;;-139.48;100.00;61774.03;5040614;28;20460;-68
2021/04/12 06:20:15;;;;;;;14.90;10.13;;;;;;;-139.48;100.00;61774.03;5055621;28;20067;-68
2021/04/12 06:23:41;;;;;;;15.57;9.35;;;;;;;-139.48;100.00;61774.03;5055411;28;20047;-69
2021/04/12 06:26:25;;;;;;;18.05;11.02;;;;;;;-139.48;100.00;61774.03;5026687;28;20409;-68
2021/04/12 06:29:23;;;;;;;20.35;12.63;;;;;;;-139.48;100.00;61774.03;5054245;28;20414;-69
2021/04/12 06:32:13;;;;;;;20.45;11.50;;;;;;;-139.48;100.00;61774.03;5055260;28;20136;-68
2021/04/12 06:35:02;;;;;;;19.15;12.25;;;;;;;-139.48;100.00;61774.03;5055009;28;20513;-68
2021/04/12 06:37:57;;;;;;;19.67;11.13;;;;;;;-139.48;100.00;61774.03;5053752;28;20099;-68
2021/04/12 06:40:49;;;;;;;21.20;13.35;;;;;;;-139.48;100.00;61774.03;5054750;28;20112;-68
2021/04/12 06:44:03;;;;;;;23.42;13.77;;;;;;;-139.48;100.00;61774.03;5054001;28;20044;-68
2021/04/12 06:47:24;;;;;;;16.88;10.70;;;;;;;-139.48;100.00;61774.03;5054534;28;20480;-68
2021/04/12 06:50:28;;;;;;;17.98;11.60;;;;;;;-139.48;100.00;61774.03;5053690;28;20067;-68
2021/04/12 06:53:43;;;;;;;17.20;11.30;;;;;;;-139.48;100.00;61774.03;5053885;28;20102;-68
2021/04/12 06:56:44;;;;;;;18.50;11.98;;;;;;;-139.48;100.00;61774.03;5053424;28;20102;-68
2021/04/12 07:00:11;;;;;;;26.15;14.52;;;;;;;-139.48;100.00;61774.03;5053532;28;20040;-68
2021/04/12 07:03:35;;;;;;;25.95;15.73;;;;;;;-139.48;100.00;61774.03;5039607;28;20039;-68
2021/04/12 07:06:52;;;;;;;22.60;14.25;;;;;;;-139.48;100.00;61774.03;5054296;28;20063;-68
2021/04/12 07:10:11;;;;;;;22.17;14.05;;;;;;;-139.48;100.00;61774.03;5020038;28;20102;-68
2021/04/12 07:13:05;;;;;;;25.05;14.35;;;;;;;-139.48;100.00;61774.03;4993598;28;20051;-69
2021/04/12 07:16:22;;;;;;;18.90;11.82;;;;;;;-139.48;100.00;61774.03;5054518;28;20063;-69
2021/04/12 07:19:44;;;;;;;23.60;14.27;;;;;;;-139.48;100.00;61774.03;5052970;28;20048;-68
2021/04/12 07:23:16;;;;;;;21.83;13.38;;;;;;;-139.48;100.00;61774.03;5053245;28;20044;-68
2021/04/12 07:26:35;;;;;;;20.40;12.77;;;;;;;-139.48;100.00;61774.03;5003723;28;20535;-67
2021/04/12 07:29:38;;;;;;;21.65;13.55;;;;;;;-139.48;100.00;61774.03;5043975;28;20074;-69
2021/04/12 07:33:03;;;;;;;20.13;13.70;;;;;;;-139.48;100.00;61774.03;5053768;28;20052;-68
2021/04/12 07:35:59;;;;;;;;;;;;;;;-139.48;100.00;61774.03;5053505;28;20090;-68
2021/04/12 07:39:14;;;;;;;22.13;13.93;;;;;;;-139.48;100.00;61774.03;5053926;28;19920;-68
2021/04/12 07:42:24;;;;;;;20.23;11.68;;;;;;;-139.48;100.00;61774.03;5052808;28;20091;-68
2021/04/12 07:45:58;;;;;;;18.88;12.07;;;;;;;-139.48;100.00;61774.03;5052471;28;20182;-69
2021/04/12 07:49:19;;;;;;;18.70;10.50;;;;;;;-139.48;100.00;61774.03;5053584;28;20076;-69
2021/04/12 07:52:22;;;;;;;17.25;12.18;;;;;;;-139.48;100.00;61774.03;5052316;28;20059;-68
2021/04/12 07:55:28;;;;;;;19.33;10.32;;;;;;;-139.48;100.00;61774.03;5053554;28;20044;-69
2021/04/12 07:58:30;;;;;;;12.45;8.65;;;;;;;-139.48;100.00;61774.03;5052560;28;20513;-69
2021/04/12 08:01:31;;;;;;;14.57;9.23;;;;;;;-139.48;100.00;61774.03;5053605;28;20533;-68
2021/04/12 08:04:44;;;;;;;14.43;9.75;;;;;;;-139.48;100.00;61774.03;5052399;28;20123;-68
2021/04/12 08:08:02;;;;;;;14.07;9.27;;;;;;;-139.48;100.00;61774.03;5053125;28;20076;-68
2021/04/12 08:11:24;;;;;;;15.85;9.45;;;;;;;-139.48;100.00;61774.03;5052029;28;20147;-68
2021/04/12 08:14:30;;;;;;;14.25;8.65;;;;;;;-139.48;100.00;61774.03;5053260;28;20055;-68
2021/04/12 08:17:46;;;;;;;12.25;7.55;;;;;;;-139.48;100.00;61774.03;5053244;28;20051;-68
2021/04/12 08:20:48;;;;;;;13.13;6.15;;;;;;;-139.48;100.00;61774.03;5053138;28;20063;-68
2021/04/12 08:23:57;;;;;;;8.38;5.05;;;;;;;-139.48;100.00;61774.03;5038038;28;20047;-68
2021/04/12 08:27:22;;;;;;;9.05;5.03;;;;;;;-139.48;100.00;61774.03;5052246;28;20094;-69
2021/04/12 08:30:38;;;;;;;10.20;4.90;;;;;;;-139.48;100.00;61774.03;5052949;28;20570;-69
2021/04/12 08:33:44;;;;;;;8.30;4.47;;;;;;;-139.48;100.00;61774.03;5052814;28;20095;-69
2021/04/12 08:36:51;;;;;;;6.90;4.05;;;;;;;-139.48;100.00;61774.03;5053120;28;20048;-69
2021/04/12 08:40:13;;;;;;;5.32;4.57;;;;;;;-139.48;100.00;61774.03;5052071;28;20043;-69
2021/04/12 08:43:15;;;;;;;7.43;4.40;;;;;;;-139.48;100.00;61774.03;5051995;28;20120;-68
2021/04/12 08:46:05;;;;;;;5.75;4.05;;;;;;;-139.48;100.00;61774.03;5052012;28;20052;-68
2021/04/12 08:49:01;;;;;;;5.40;4.30;;;;;;;-139.48;100.00;61774.03;5052886;28;20043;-68
2021/04/12 08:51:51;;;;;;;6.18;3.75;;;;;;;-139.48;100.00;61774.03;5052292;28;20052;-69
2021/04/12 08:54:47;;;;;;;5.38;3.55;;;;;;;-139.48;100.00;61774.03;5055470;28;20117;-68
2021/04/12 08:57:57;;;;;;;5.50;4.05;;;;;;;-139.48;100.00;61774.03;5041585;28;20051;-68
2021/04/12 09:01:19;;;;;;;4.88;3.72;;;;;;;-139.48;100.00;61774.03;5055595;28;20059;-68
2021/04/12 09:04:30;;;;;;;7.38;3.30;;;;;;;-139.48;100.00;61774.03;5056351;28;20044;-68
2021/04/12 09:07:20;;;;;;;7.65;3.92;;;;;;;-139.48;100.00;61774.03;5055366;28;20560;-67
2021/04/12 09:10:41;;;;;;;4.97;3.15;;;;;;;-139.48;100.00;61774.03;5055637;28;20071;-68
2021/04/12 09:13:50;;;;;;;3.75;2.72;;;;;;;-139.48;100.00;61774.03;5055326;28;20106;-68
2021/04/12 09:16:46;;;;;;;5.18;2.67;;;;;;;-139.48;100.00;61774.03;5055936;28;20114;-68
2021/04/12 09:19:41;;;;;;;6.00;2.80;;;;;;;-139.48;100.00;61774.03;5055783;28;20402;-69
2021/04/12 09:23:03;;;;;;;5.82;2.72;;;;;;;-139.48;100.00;61774.03;5056391;28;20047;-69
2021/04/12 09:26:14;;;;;;;5.03;3.00;;;;;;;-139.48;100.00;61774.03;5056247;28;20094;-69
2021/04/12 09:29:25;;;;;;;3.80;2.13;;;;;;;-139.48;100.00;61774.03;5055567;28;20106;-69
2021/04/12 09:32:47;;;;;;;4.47;2.58;;;;;;;-139.48;100.00;61774.03;5055950;28;20418;-69
2021/04/12 09:35:55;;;;;;;3.50;2.08;;;;;;;-139.48;100.00;61774.03;5056122;28;20124;-69
2021/04/12 09:39:01;;;;;;;6.35;1.55;;;;;;;-139.48;100.00;61774.03;5055759;28;20147;-68
2021/04/12 09:42:04;;;;;;;2.38;1.70;;;;;;;-139.48;100.00;61774.03;5055815;28;20525;-69
2021/04/12 09:45:04;;;;;;;4.85;1.98;;;;;;;-139.48;100.00;61774.03;5055771;28;20412;-69
2021/04/12 09:47:48;;;;;;;2.30;1.75;;;;;;;-139.48;100.00;61774.03;5054581;28;20044;-69
2021/04/12 09:51:09;;;;;;;4.82;1.75;;;;;;;-139.48;100.00;61774.03;5055387;28;20048;-69
2021/04/12 09:54:30;;;;;;;12.02;2.30;;;;;;;-139.48;100.00;61774.03;5055730;28;20047;-69
2021/04/12 09:57:47;;;;;;;4.88;2.08;;;;;;;-139.48;100.00;61774.03;5054493;28;20115;-68
2021/04/12 10:00:37;;;;;;;4.32;2.30;;;;;;;-139.48;100.00;61774.03;5040599;28;20074;-69
2021/04/12 10:03:31;;;;;;;3.00;1.88;;;;;;;-139.48;100.00;61774.03;5055352;28;20047;-69
2021/04/12 10:06:49;;;;;;;3.93;2.23;;;;;;;-139.48;100.00;61774.03;5055300;28;20131;-68
2021/04/12 10:09:46;;;;;;;4.05;1.92;;;;;;;-139.48;100.00;61774.03;5055136;28;20055;-69
2021/04/12 10:12:35;;;;;;;3.50;1.90;;;;;;;-139.48;100.00;61774.03;5054038;28;20052;-69
2021/04/12 10:15:42;;;;;;;4.65;2.13;;;;;;;-139.48;100.00;61774.03;5055459;28;20513;-68
2021/04/12 10:18:32;;;;;;;3.65;1.75;;;;;;;-139.48;100.00;61774.03;5040297;28;20569;-69
2021/04/12 10:21:33;;;;;;;4.03;2.28;;;;;;;-139.48;100.00;61774.03;5054127;28;20098;-68
2021/04/12 10:24:27;;;;;;;2.65;2.03;;;;;;;-139.48;100.00;61774.03;5054444;28;20504;-68
2021/04/12 10:27:18;;;;;;;3.90;2.08;;;;;;;-139.48;100.00;61774.03;5054459;28;20044;-69
2021/04/12 10:30:18;;;;;;;2.75;2.10;;;;;;;-139.48;100.00;61774.03;5054377;28;20090;-68
2021/04/12 10:33:04;;;;;;;5.10;2.28;;;;;;;-139.48;100.00;61774.03;5053807;28;20052;-69
2021/04/12 10:35:52;;;;;;;3.78;2.00;;;;;;;-139.48;100.00;61774.03;5039786;28;20409;-69
2021/04/12 10:38:39;;;;;;;2.45;1.33;;;;;;;-139.48;100.00;61774.03;5040016;28;20095;-68
2021/04/12 10:41:34;;;;;;;1.83;1.42;;;;;;;-139.48;100.00;61774.03;5039895;28;20055;-68
2021/04/12 10:44:32;;;;;;;3.60;1.20;;;;;;;-139.48;100.00;61774.03;5053853;28;20044;-69
2021/04/12 10:47:22;;;;;;;2.08;1.55;;;;;;;-139.48;100.00;61774.03;5054761;28;20093;-67
2021/04/12 10:50:15;;;;;;;2.83;1.60;;;;;;;-139.48;100.00;61774.03;5054434;28;20094;-68
2021/04/12 10:53:26;;;;;;;3.22;1.30;;;;;;;-139.48;100.00;61774.03;5054577;28;20051;-68
2021/04/12 10:56:15;;;;;;;2.15;1.67;;;;;;;-139.48;100.00;61774.03;5054579;28;20044;-69
2021/04/12 10:59:11;;;;;;;3.13;1.60;;;;;;;-139.48;100.00;61774.03;5053441;28;20052;-69
2021/04/12 11:02:06;;;;;;;3.63;1.77;;;;;;;-139.48;100.00;61774.03;5053180;28;20044;-69
2021/04/12 11:04:50;;;;;;;3.70;1.77;;;;;;;-139.48;100.00;61774.03;5054538;28;20470;-69
2021/04/12 11:07:40;;;;;;;2.00;1.60;;;;;;;-139.48;100.00;61774.03;5054193;28;20464;-69
2021/04/12 11:11:01;;;;;;;3.03;1.73;;;;;;;-139.48;100.00;61774.03;5054179;28;20048;-69
2021/04/12 11:14:06;;;;;;;3.00;1.75;;;;;;;-139.48;100.00;61774.03;5054201;28;20131;-68
2021/04/12 11:17:01;;;;;;;4.25;1.92;;;;;;;-139.48;100.00;61774.03;5052590;28;20066;-69
2021/04/12 11:19:58;;;;;;;2.90;1.90;;;;;;;-139.48;100.00;61774.03;5053157;28;20098;-68
2021/04/12 11:22:58;;;;;;;4.40;2.05;;;;;;;-139.48;100.00;61774.03;5054018;28;20040;-69
2021/04/12 11:25:50;;;;;;;4.60;1.70;;;;;;;-139.48;100.00;61774.03;5054086;28;20048;-69
2021/04/12 11:28:42;;;;;;;5.93;2.00;;;;;;;-139.48;100.00;61774.03;5053145;28;20055;-68
2021/04/12 11:31:38;;;;;;;4.85;1.67;;;;;;;-139.48;100.00;61774.03;5038767;28;20075;-68
2021/04/12 11:34:38;;;;;;;2.30;2.00;;;;;;;-139.48;100.00;61774.03;5054277;28;20460;-69
2021/04/12 11:37:33;;;;;;;2.78;1.77;;;;;;;-139.48;100.00;61774.03;5038634;28;20103;-69
2021/04/12 11:40:25;;;;;;;2.72;1.75;;;;;;;-139.48;100.00;61774.03;5038703;28;20123;-69
2021/04/12 11:43:16;;;;;;;5.65;2.08;;;;;;;-139.48;100.00;61774.03;5052841;28;20048;-68
2021/04/12 11:46:26;;;;;;;3.25;1.90;;;;;;;-139.48;100.00;61774.03;5052966;28;20055;-68
2021/04/12 11:49:19;;;;;;;3.33;1.80;;;;;;;-139.48;100.00;61774.03;5053703;28;20047;-69
2021/04/12 11:52:10;;;;;;;2.80;1.70;;;;;;;-139.48;100.00;61774.03;5052318;28;20099;-69
2021/04/12 11:55:06;;;;;;;1.98;1.50;;;;;;;-139.48;100.00;61774.03;5052340;28;20044;-69
2021/04/12 11:58:11;;;;;;;3.88;1.70;;;;;;;-139.48;100.00;61774.03;5038160;28;20437;-69
2021/04/12 12:01:16;;;;;;;2.88;1.75;;;;;;;-139.48;100.00;61774.03;5052389;28;20575;-69
2021/04/12 12:04:13;;;;;;;3.55;1.60;;;;;;;-139.48;100.00;61774.03;5038436;28;20067;-69
2021/04/12 12:07:35;;;;;;;3.70;1.60;;;;;;;-139.48;100.00;61774.03;5052310;28;20047;-69
2021/04/12 12:10:38;;;;;;;2.45;1.58;;;;;;;-139.48;100.00;61774.03;5052213;28;20070;-69
2021/04/12 12:13:42;;;;;;;3.28;1.40;;;;;;;-139.48;100.00;61774.03;5053237;28;20075;-69
2021/04/12 12:16:46;;;;;;;59.08;26.00;;;;;;;-139.48;100.00;61774.03;5038136;28;20551;-68
2021/04/12 12:19:46;;;;;;;3.75;1.50;;;;;;;-139.48;100.00;61774.03;5053189;28;20457;-68
2021/04/12 12:22:51;;;;;;;2.92;1.40;;;;;;;-139.48;100.00;61774.03;5051910;28;20568;-69
2021/04/12 12:25:44;;;;;;;2.45;1.38;;;;;;;-139.48;100.00;61774.03;5051920;28;20056;-69
2021/04/12 12:28:38;;;;;;;2.57;1.40;;;;;;;-139.48;100.00;61774.03;5054754;28;20074;-69
2021/04/12 12:31:32;;;;;;;3.63;1.35;;;;;;;-139.48;100.00;61774.03;5055990;28;20072;-68
2021/04/12 12:34:19;;;;;;;2.85;1.00;;;;;;;-139.48;100.00;61774.03;5056103;28;20047;-69
2021/04/12 12:37:02;;;;;;;1.88;1.10;;;;;;;-139.48;100.00;61774.03;5057023;28;20140;-68
2021/04/12 12:39:49;;;;;;;4.25;1.65;;;;;;;-139.48;100.00;61774.03;5057376;28;20063;-69
2021/04/12 12:42:38;;;;;;;1.40;1.30;;;;;;;-139.48;100.00;61774.03;5055657;28;20048;-67
2021/04/12 12:45:29;;;;;;;3.83;1.25;;;;;;;-139.48;100.00;61774.03;5056050;28;20052;-67
2021/04/12 12:48:20;;;;;;;3.47;1.33;;;;;;;-139.48;100.00;61774.03;5055910;28;20052;-69
2021/04/12 12:51:38;;;;;;;2.90;1.40;;;;;;;-139.48;100.00;61774.03;5041489;28;20508;-69
2021/04/12 12:54:35;;;;;;;1.45;1.10;;;;;;;-139.48;100.00;61774.03;5037190;28;20095;-69
2021/04/12 12:57:26;;;;;;;2.40;1.48;;;;;;;-139.48;100.00;61774.03;5056474;28;20048;-69
2021/04/12 13:00:17;;;;;;;2.58;1.13;;;;;;;-139.48;100.00;61774.03;5056365;28;20048;-69
2021/04/12 13:03:16;;;;;;;4.03;1.27;;;;;;;-139.48;100.00;61774.03;5056921;28;20456;-69
2021/04/12 13:06:13;;;;;;;1.63;1.13;;;;;;;-139.48;100.00;61774.03;5055658;28;20417;-69
2021/04/12 13:09:30;;;;;;;2.55;1.58;;;;;;;-139.48;100.00;61774.03;5055587;28;20405;-68
2021/04/12 13:12:15;;;;;;;1.58;1.02;;;;;;;-139.48;100.00;61774.03;5055968;28;20060;-69
2021/04/12 13:15:15;;;;;;;3.83;1.50;;;;;;;-139.48;100.00;61774.03;5055484;28;20090;-68
2021/04/12 13:18:20;;;;;;;2.00;1.20;;;;;;;-139.48;100.00;61774.03;5055194;28;20052;-69
2021/04/12 13:21:14;;;;;;;3.00;1.30;;;;;;;-139.48;100.00;61774.03;5054979;28;20039;-69
2021/04/12 13:24:29;;;;;;;2.17;1.10;;;;;;;-139.48;100.00;61774.03;5055415;28;20047;-68
2021/04/12 13:27:17;;;;;;;2.03;1.02;;;;;;;-139.48;100.00;61774.03;5054977;28;20107;-69
2021/04/12 13:30:07;;;;;;;5.00;1.48;;;;;;;-139.48;100.00;61774.03;5056683;28;20136;-68
2021/04/12 13:32:56;;;;;;;1.77;1.25;;;;;;;-139.48;100.00;61774.03;5054913;28;20067;-69
2021/04/12 13:35:42;;;;;;;1.30;1.20;;;;;;;-139.48;100.00;61774.03;5055042;28;20143;-69
2021/04/12 13:38:34;;;;;;;1.23;1.00;;;;;;;-139.48;100.00;61774.03;5055094;28;20094;-68
2021/04/12 13:41:21;;;;;;;1.80;1.17;;;;;;;-139.48;100.00;61774.03;5040267;28;20198;-69
2021/04/12 13:44:08;;;;;;;2.42;1.20;;;;;;;-139.48;100.00;61774.03;5054837;28;20421;-69